sensor_id;sensor_type;location;lat;lon;timestamp;P1;durP1;ratioP1;P2;durP2;ratioP2
31770;SDS011;18343;50.152;8.182;2023-11-22T00:01:49;13.73;;;5.30;;
31770;SDS011;18343;50.152;8.182;2023-11-22T00:04:34;10.05;;;4.85;;
31770;SDS011;18343;50.152;8.182;2023-11-22T00:07:18;7.40;;;4.70;;
31770;SDS011;18343;50.152;8.182;2023-11-22T00:10:04;8.45;;;5.50;;
31770;SDS011;18343;50.152;8.182;2023-11-22T00:12:50;11.80;;;5.18;;
31770;SDS011;18343;50.152;8.182;2023-11-22T00:15:35;9.05;;;5.30;;
31770;SDS011;18343;50.152;8.182;2023-11-22T00:18:20;8.05;;;4.95;;
31770;SDS011;18343;50.152;8.182;2023-11-22T00:21:05;7.22;;;5.10;;
31770;SDS011;18343;50.152;8.182;2023-11-22T00:23:50;7.63;;;5.18;;
31770;SDS011;18343;50.152;8.182;2023-11-22T00:26:34;7.93;;;5.40;;
31770;SDS011;18343;50.152;8.182;2023-11-22T00:29:19;9.50;;;6.10;;
31770;SDS011;18343;50.152;8.182;2023-11-22T00:32:04;10.07;;;5.55;;
31770;SDS011;18343;50.152;8.182;2023-11-22T00:34:50;9.18;;;5.63;;
31770;SDS011;18343;50.152;8.182;2023-11-22T00:37:35;11.77;;;6.20;;
31770;SDS011;18343;50.152;8.182;2023-11-22T00:40:20;12.60;;;6.45;;
31770;SDS011;18343;50.152;8.182;2023-11-22T00:43:04;7.55;;;5.53;;
31770;SDS011;18343;50.152;8.182;2023-11-22T00:45:49;9.40;;;5.82;;
31770;SDS011;18343;50.152;8.182;2023-11-22T00:48:33;8.80;;;5.85;;
31770;SDS011;18343;50.152;8.182;2023-11-22T00:51:19;9.75;;;5.63;;
31770;SDS011;18343;50.152;8.182;2023-11-22T00:54:07;9.48;;;6.13;;
31770;SDS011;18343;50.152;8.182;2023-11-22T00:56:52;8.38;;;5.68;;
31770;SDS011;18343;50.152;8.182;2023-11-22T00:59:37;9.43;;;5.38;;
31770;SDS011;18343;50.152;8.182;2023-11-22T01:02:22;12.02;;;5.55;;
31770;SDS011;18343;50.152;8.182;2023-11-22T01:05:07;11.13;;;5.55;;
31770;SDS011;18343;50.152;8.182;2023-11-22T01:07:53;7.93;;;5.22;;
31770;SDS011;18343;50.152;8.182;2023-11-22T01:10:38;8.25;;;5.35;;
31770;SDS011;18343;50.152;8.182;2023-11-22T01:13:23;9.23;;;5.90;;
31770;SDS011;18343;50.152;8.182;2023-11-22T01:16:08;6.80;;;5.15;;
31770;SDS011;18343;50.152;8.182;2023-11-22T01:18:54;7.78;;;5.25;;
31770;SDS011;18343;50.152;8.182;2023-11-22T01:21:38;6.80;;;4.93;;
31770;SDS011;18343;50.152;8.182;2023-11-22T01:24:24;6.40;;;4.93;;
31770;SDS011;18343;50.152;8.182;2023-11-22T01:27:09;8.60;;;4.68;;
31770;SDS011;18343;50.152;8.182;2023-11-22T01:29:53;8.07;;;5.13;;
31770;SDS011;18343;50.152;8.182;2023-11-22T01:32:38;7.68;;;5.13;;
31770;SDS011;18343;50.152;8.182;2023-11-22T01:35:23;7.72;;;5.20;;
31770;SDS011;18343;50.152;8.182;2023-11-22T01:38:07;8.93;;;5.53;;
31770;SDS011;18343;50.152;8.182;2023-11-22T01:40:53;12.40;;;5.30;;
31770;SDS011;18343;50.152;8.182;2023-11-22T01:43:38;11.15;;;5.35;;
31770;SDS011;18343;50.152;8.182;2023-11-22T01:46:23;7.43;;;4.90;;
31770;SDS011;18343;50.152;8.182;2023-11-22T01:49:09;7.43;;;4.88;;
31770;SDS011;18343;50.152;8.182;2023-11-22T01:51:54;7.32;;;4.85;;
31770;SDS011;18343;50.152;8.182;2023-11-22T01:54:38;8.45;;;5.38;;
31770;SDS011;18343;50.152;8.182;2023-11-22T01:57:25;8.38;;;5.43;;
31770;SDS011;18343;50.152;8.182;2023-11-22T02:00:11;7.47;;;5.32;;
31770;SDS011;18343;50.152;8.182;2023-11-22T02:02:56;8.50;;;5.30;;
31770;SDS011;18343;50.152;8.182;2023-11-22T02:05:41;8.68;;;5.47;;
31770;SDS011;18343;50.152;8.182;2023-11-22T02:08:27;7.97;;;5.20;;
31770;SDS011;18343;50.152;8.182;2023-11-22T02:11:12;9.90;;;5.88;;
31770;SDS011;18343;50.152;8.182;2023-11-22T02:13:58;22.08;;;6.90;;
31770;SDS011;18343;50.152;8.182;2023-11-22T02:16:42;9.75;;;5.57;;
31770;SDS011;18343;50.152;8.182;2023-11-22T02:19:27;9.25;;;6.10;;
31770;SDS011;18343;50.152;8.182;2023-11-22T02:22:12;9.88;;;5.63;;
31770;SDS011;18343;50.152;8.182;2023-11-22T02:24:58;10.32;;;5.95;;
31770;SDS011;18343;50.152;8.182;2023-11-22T02:27:42;12.98;;;5.85;;
31770;SDS011;18343;50.152;8.182;2023-11-22T02:30:26;11.30;;;5.32;;
31770;SDS011;18343;50.152;8.182;2023-11-22T02:33:11;14.07;;;5.40;;
31770;SDS011;18343;50.152;8.182;2023-11-22T02:35:56;9.50;;;5.55;;
31770;SDS011;18343;50.152;8.182;2023-11-22T02:38:41;9.55;;;5.85;;
31770;SDS011;18343;50.152;8.182;2023-11-22T02:41:27;9.50;;;5.75;;
31770;SDS011;18343;50.152;8.182;2023-11-22T02:44:12;10.45;;;5.40;;
31770;SDS011;18343;50.152;8.182;2023-11-22T02:46:57;11.40;;;5.50;;
31770;SDS011;18343;50.152;8.182;2023-11-22T02:49:42;8.25;;;5.45;;
31770;SDS011;18343;50.152;8.182;2023-11-22T02:52:26;11.13;;;5.40;;
31770;SDS011;18343;50.152;8.182;2023-11-22T02:55:11;10.45;;;5.80;;
31770;SDS011;18343;50.152;8.182;2023-11-22T02:57:57;9.38;;;5.40;;
31770;SDS011;18343;50.152;8.182;2023-11-22T03:00:41;8.38;;;5.25;;
31770;SDS011;18343;50.152;8.182;2023-11-22T03:03:26;9.52;;;5.30;;
31770;SDS011;18343;50.152;8.182;2023-11-22T03:06:10;9.48;;;4.97;;
31770;SDS011;18343;50.152;8.182;2023-11-22T03:08:55;7.55;;;5.38;;
31770;SDS011;18343;50.152;8.182;2023-11-22T03:11:40;7.57;;;4.78;;
31770;SDS011;18343;50.152;8.182;2023-11-22T03:14:26;9.80;;;5.28;;
31770;SDS011;18343;50.152;8.182;2023-11-22T03:17:10;11.40;;;5.40;;
31770;SDS011;18343;50.152;8.182;2023-11-22T03:19:55;7.57;;;5.15;;
31770;SDS011;18343;50.152;8.182;2023-11-22T03:22:40;7.63;;;5.00;;
31770;SDS011;18343;50.152;8.182;2023-11-22T03:25:26;8.13;;;4.72;;
31770;SDS011;18343;50.152;8.182;2023-11-22T03:28:10;9.43;;;4.95;;
31770;SDS011;18343;50.152;8.182;2023-11-22T03:30:56;7.32;;;4.28;;
31770;SDS011;18343;50.152;8.182;2023-11-22T03:33:41;6.72;;;4.30;;
31770;SDS011;18343;50.152;8.182;2023-11-22T03:36:26;9.18;;;4.80;;
31770;SDS011;18343;50.152;8.182;2023-11-22T03:39:11;8.40;;;4.68;;
31770;SDS011;18343;50.152;8.182;2023-11-22T03:41:56;6.63;;;4.90;;
31770;SDS011;18343;50.152;8.182;2023-11-22T03:44:41;6.50;;;4.50;;
31770;SDS011;18343;50.152;8.182;2023-11-22T03:47:27;8.57;;;4.60;;
31770;SDS011;18343;50.152;8.182;2023-11-22T03:50:11;13.02;;;4.35;;
31770;SDS011;18343;50.152;8.182;2023-11-22T03:52:56;6.22;;;4.15;;
31770;SDS011;18343;50.152;8.182;2023-11-22T03:55:41;10.30;;;4.88;;
31770;SDS011;18343;50.152;8.182;2023-11-22T03:58:25;8.27;;;3.88;;
31770;SDS011;18343;50.152;8.182;2023-11-22T04:01:10;5.43;;;3.75;;
31770;SDS011;18343;50.152;8.182;2023-11-22T04:03:56;6.60;;;4.47;;
31770;SDS011;18343;50.152;8.182;2023-11-22T04:06:41;7.45;;;4.88;;
31770;SDS011;18343;50.152;8.182;2023-11-22T04:09:26;7.45;;;4.78;;
31770;SDS011;18343;50.152;8.182;2023-11-22T04:12:11;8.77;;;5.13;;
31770;SDS011;18343;50.152;8.182;2023-11-22T04:14:55;9.30;;;4.75;;
31770;SDS011;18343;50.152;8.182;2023-11-22T04:17:40;8.52;;;5.10;;
31770;SDS011;18343;50.152;8.182;2023-11-22T04:20:26;11.32;;;5.10;;
31770;SDS011;18343;50.152;8.182;2023-11-22T04:23:11;13.07;;;5.20;;
31770;SDS011;18343;50.152;8.182;2023-11-22T04:25:55;7.70;;;4.80;;
31770;SDS011;18343;50.152;8.182;2023-11-22T04:28:40;8.35;;;5.53;;
31770;SDS011;18343;50.152;8.182;2023-11-22T04:31:24;10.88;;;5.13;;
31770;SDS011;18343;50.152;8.182;2023-11-22T04:34:09;9.57;;;5.57;;
31770;SDS011;18343;50.152;8.182;2023-11-22T04:36:55;9.32;;;5.60;;
31770;SDS011;18343;50.152;8.182;2023-11-22T04:39:40;6.43;;;4.45;;
31770;SDS011;18343;50.152;8.182;2023-11-22T04:42:24;10.88;;;5.35;;
31770;SDS011;18343;50.152;8.182;2023-11-22T04:45:09;8.63;;;5.32;;
31770;SDS011;18343;50.152;8.182;2023-11-22T04:47:54;8.55;;;5.65;;
31770;SDS011;18343;50.152;8.182;2023-11-22T04:50:39;8.55;;;5.15;;
31770;SDS011;18343;50.152;8.182;2023-11-22T04:53:25;9.13;;;5.20;;
31770;SDS011;18343;50.152;8.182;2023-11-22T04:56:10;7.93;;;5.28;;
31770;SDS011;18343;50.152;8.182;2023-11-22T04:58:56;9.45;;;4.97;;
31770;SDS011;18343;50.152;8.182;2023-11-22T05:01:40;8.30;;;4.93;;
31770;SDS011;18343;50.152;8.182;2023-11-22T05:04:25;7.85;;;5.32;;
31770;SDS011;18343;50.152;8.182;2023-11-22T05:07:09;9.63;;;5.97;;
31770;SDS011;18343;50.152;8.182;2023-11-22T05:09:58;9.35;;;5.40;;
31770;SDS011;18343;50.152;8.182;2023-11-22T05:12:43;8.85;;;5.45;;
31770;SDS011;18343;50.152;8.182;2023-11-22T05:15:28;7.00;;;4.72;;
31770;SDS011;18343;50.152;8.182;2023-11-22T05:18:13;11.45;;;6.15;;
31770;SDS011;18343;50.152;8.182;2023-11-22T05:20:57;10.57;;;5.32;;
31770;SDS011;18343;50.152;8.182;2023-11-22T05:23:42;11.13;;;5.95;;
31770;SDS011;18343;50.152;8.182;2023-11-22T05:26:28;9.05;;;5.32;;
31770;SDS011;18343;50.152;8.182;2023-11-22T05:29:13;10.85;;;5.38;;
31770;SDS011;18343;50.152;8.182;2023-11-22T05:31:58;13.50;;;5.30;;
31770;SDS011;18343;50.152;8.182;2023-11-22T05:34:44;8.30;;;4.90;;
31770;SDS011;18343;50.152;8.182;2023-11-22T05:37:29;12.50;;;5.47;;
31770;SDS011;18343;50.152;8.182;2023-11-22T05:40:13;11.07;;;5.13;;
31770;SDS011;18343;50.152;8.182;2023-11-22T05:42:59;10.73;;;5.20;;
31770;SDS011;18343;50.152;8.182;2023-11-22T05:45:43;7.88;;;5.30;;
31770;SDS011;18343;50.152;8.182;2023-11-22T05:48:28;9.90;;;5.20;;
31770;SDS011;18343;50.152;8.182;2023-11-22T05:51:13;8.63;;;5.50;;
31770;SDS011;18343;50.152;8.182;2023-11-22T05:53:57;8.90;;;4.65;;
31770;SDS011;18343;50.152;8.182;2023-11-22T05:56:42;9.32;;;5.30;;
31770;SDS011;18343;50.152;8.182;2023-11-22T05:59:28;8.02;;;5.10;;
31770;SDS011;18343;50.152;8.182;2023-11-22T06:02:13;8.68;;;5.05;;
31770;SDS011;18343;50.152;8.182;2023-11-22T06:04:58;11.88;;;6.80;;
31770;SDS011;18343;50.152;8.182;2023-11-22T06:07:43;16.38;;;5.40;;
31770;SDS011;18343;50.152;8.182;2023-11-22T06:10:27;13.38;;;5.75;;
31770;SDS011;18343;50.152;8.182;2023-11-22T06:13:12;11.15;;;6.28;;
31770;SDS011;18343;50.152;8.182;2023-11-22T06:15:58;8.30;;;5.32;;
31770;SDS011;18343;50.152;8.182;2023-11-22T06:18:43;12.18;;;5.53;;
31770;SDS011;18343;50.152;8.182;2023-11-22T06:21:28;9.73;;;4.93;;
31770;SDS011;18343;50.152;8.182;2023-11-22T06:24:12;10.80;;;5.05;;
31770;SDS011;18343;50.152;8.182;2023-11-22T06:26:57;10.18;;;5.15;;
31770;SDS011;18343;50.152;8.182;2023-11-22T06:29:42;10.15;;;5.70;;
31770;SDS011;18343;50.152;8.182;2023-11-22T06:32:28;10.18;;;5.45;;
31770;SDS011;18343;50.152;8.182;2023-11-22T06:35:12;7.30;;;4.50;;
31770;SDS011;18343;50.152;8.182;2023-11-22T06:38:16;6.53;;;4.13;;
31770;SDS011;18343;50.152;8.182;2023-11-22T06:41:00;7.20;;;4.32;;
31770;SDS011;18343;50.152;8.182;2023-11-22T06:43:45;11.20;;;5.03;;
31770;SDS011;18343;50.152;8.182;2023-11-22T06:46:29;11.98;;;6.30;;
31770;SDS011;18343;50.152;8.182;2023-11-22T06:49:15;12.90;;;5.95;;
31770;SDS011;18343;50.152;8.182;2023-11-22T06:52:00;6.07;;;4.20;;
31770;SDS011;18343;50.152;8.182;2023-11-22T06:54:44;8.38;;;4.80;;
31770;SDS011;18343;50.152;8.182;2023-11-22T06:57:29;11.00;;;4.32;;
31770;SDS011;18343;50.152;8.182;2023-11-22T07:00:14;7.85;;;4.13;;
31770;SDS011;18343;50.152;8.182;2023-11-22T07:03:00;6.72;;;3.97;;
31770;SDS011;18343;50.152;8.182;2023-11-22T07:05:45;11.90;;;4.85;;
31770;SDS011;18343;50.152;8.182;2023-11-22T07:08:30;9.38;;;4.80;;
31770;SDS011;18343;50.152;8.182;2023-11-22T07:11:20;7.78;;;4.10;;
31770;SDS011;18343;50.152;8.182;2023-11-22T07:14:06;6.90;;;4.43;;
31770;SDS011;18343;50.152;8.182;2023-11-22T07:16:51;8.20;;;4.05;;
31770;SDS011;18343;50.152;8.182;2023-11-22T07:19:35;7.85;;;4.32;;
31770;SDS011;18343;50.152;8.182;2023-11-22T07:22:21;8.77;;;4.35;;
31770;SDS011;18343;50.152;8.182;2023-11-22T07:25:08;9.60;;;4.57;;
31770;SDS011;18343;50.152;8.182;2023-11-22T07:27:53;7.90;;;4.32;;
31770;SDS011;18343;50.152;8.182;2023-11-22T07:30:37;7.80;;;4.45;;
31770;SDS011;18343;50.152;8.182;2023-11-22T07:33:22;8.63;;;4.68;;
31770;SDS011;18343;50.152;8.182;2023-11-22T07:36:07;7.55;;;3.78;;
31770;SDS011;18343;50.152;8.182;2023-11-22T07:38:53;5.97;;;3.67;;
31770;SDS011;18343;50.152;8.182;2023-11-22T07:41:38;11.80;;;5.30;;
31770;SDS011;18343;50.152;8.182;2023-11-22T07:44:23;10.50;;;4.75;;
31770;SDS011;18343;50.152;8.182;2023-11-22T07:47:11;10.43;;;4.15;;
31770;SDS011;18343;50.152;8.182;2023-11-22T07:49:55;8.40;;;4.30;;
31770;SDS011;18343;50.152;8.182;2023-11-22T07:52:40;6.68;;;4.40;;
31770;SDS011;18343;50.152;8.182;2023-11-22T07:55:26;6.28;;;3.92;;
31770;SDS011;18343;50.152;8.182;2023-11-22T07:58:11;7.47;;;4.22;;
31770;SDS011;18343;50.152;8.182;2023-11-22T08:00:56;9.15;;;4.80;;
31770;SDS011;18343;50.152;8.182;2023-11-22T08:03:40;5.88;;;4.15;;
31770;SDS011;18343;50.152;8.182;2023-11-22T08:06:25;7.70;;;4.60;;
31770;SDS011;18343;50.152;8.182;2023-11-22T08:09:10;9.05;;;4.60;;
31770;SDS011;18343;50.152;8.182;2023-11-22T08:11:56;6.85;;;4.15;;
31770;SDS011;18343;50.152;8.182;2023-11-22T08:14:40;9.73;;;4.07;;
31770;SDS011;18343;50.152;8.182;2023-11-22T08:17:25;9.25;;;4.22;;
31770;SDS011;18343;50.152;8.182;2023-11-22T08:20:10;6.15;;;4.03;;
31770;SDS011;18343;50.152;8.182;2023-11-22T08:22:55;8.48;;;4.72;;
31770;SDS011;18343;50.152;8.182;2023-11-22T08:25:39;8.50;;;4.40;;
31770;SDS011;18343;50.152;8.182;2023-11-22T08:28:25;9.02;;;4.32;;
31770;SDS011;18343;50.152;8.182;2023-11-22T08:31:09;8.15;;;4.53;;
31770;SDS011;18343;50.152;8.182;2023-11-22T08:33:54;8.98;;;4.70;;
31770;SDS011;18343;50.152;8.182;2023-11-22T08:36:39;8.77;;;4.38;;
31770;SDS011;18343;50.152;8.182;2023-11-22T08:39:24;7.38;;;4.13;;
31770;SDS011;18343;50.152;8.182;2023-11-22T08:42:08;11.15;;;5.10;;
31770;SDS011;18343;50.152;8.182;2023-11-22T08:44:54;8.43;;;4.35;;
31770;SDS011;18343;50.152;8.182;2023-11-22T08:47:39;11.68;;;4.85;;
31770;SDS011;18343;50.152;8.182;2023-11-22T08:50:24;7.50;;;4.28;;
31770;SDS011;18343;50.152;8.182;2023-11-22T08:53:08;6.40;;;4.30;;
31770;SDS011;18343;50.152;8.182;2023-11-22T08:55:53;12.43;;;4.85;;
31770;SDS011;18343;50.152;8.182;2023-11-22T08:58:38;10.02;;;5.20;;
31770;SDS011;18343;50.152;8.182;2023-11-22T09:01:24;11.32;;;4.82;;
31770;SDS011;18343;50.152;8.182;2023-11-22T09:04:11;13.57;;;6.25;;
31770;SDS011;18343;50.152;8.182;2023-11-22T09:06:55;12.05;;;6.57;;
31770;SDS011;18343;50.152;8.182;2023-11-22T09:09:40;10.73;;;5.70;;
31770;SDS011;18343;50.152;8.182;2023-11-22T09:12:25;13.15;;;5.45;;
31770;SDS011;18343;50.152;8.182;2023-11-22T09:15:11;9.95;;;5.57;;
31770;SDS011;18343;50.152;8.182;2023-11-22T09:17:57;12.43;;;5.03;;
31770;SDS011;18343;50.152;8.182;2023-11-22T09:20:42;14.55;;;6.15;;
31770;SDS011;18343;50.152;8.182;2023-11-22T09:23:27;17.33;;;6.70;;
31770;SDS011;18343;50.152;8.182;2023-11-22T09:26:11;17.08;;;6.45;;
31770;SDS011;18343;50.152;8.182;2023-11-22T09:28:56;15.70;;;6.70;;
31770;SDS011;18343;50.152;8.182;2023-11-22T09:31:41;14.07;;;6.57;;
31770;SDS011;18343;50.152;8.182;2023-11-22T09:34:27;15.63;;;6.60;;
31770;SDS011;18343;50.152;8.182;2023-11-22T09:37:12;11.73;;;5.60;;
31770;SDS011;18343;50.152;8.182;2023-11-22T09:39:56;10.30;;;5.65;;
31770;SDS011;18343;50.152;8.182;2023-11-22T09:42:41;8.40;;;4.68;;
31770;SDS011;18343;50.152;8.182;2023-11-22T09:45:26;8.40;;;4.90;;
31770;SDS011;18343;50.152;8.182;2023-11-22T09:48:13;9.10;;;5.30;;
31770;SDS011;18343;50.152;8.182;2023-11-22T09:51:03;8.48;;;5.35;;
31770;SDS011;18343;50.152;8.182;2023-11-22T09:53:53;11.80;;;4.90;;
31770;SDS011;18343;50.152;8.182;2023-11-22T09:56:40;6.90;;;4.63;;
31770;SDS011;18343;50.152;8.182;2023-11-22T09:59:25;14.75;;;4.97;;
31770;SDS011;18343;50.152;8.182;2023-11-22T10:02:11;6.93;;;3.95;;
31770;SDS011;18343;50.152;8.182;2023-11-22T10:04:56;7.38;;;3.97;;
31770;SDS011;18343;50.152;8.182;2023-11-22T10:07:42;7.80;;;3.70;;
31770;SDS011;18343;50.152;8.182;2023-11-22T10:10:26;11.93;;;4.32;;
31770;SDS011;18343;50.152;8.182;2023-11-22T10:13:17;8.68;;;4.22;;
31770;SDS011;18343;50.152;8.182;2023-11-22T10:16:08;8.90;;;4.35;;
31770;SDS011;18343;50.152;8.182;2023-11-22T10:18:56;6.90;;;4.47;;
31770;SDS011;18343;50.152;8.182;2023-11-22T10:21:42;8.30;;;4.32;;
31770;SDS011;18343;50.152;8.182;2023-11-22T10:24:31;8.77;;;4.63;;
31770;SDS011;18343;50.152;8.182;2023-11-22T10:27:16;7.35;;;4.40;;
31770;SDS011;18343;50.152;8.182;2023-11-22T10:30:00;10.43;;;4.22;;
31770;SDS011;18343;50.152;8.182;2023-11-22T10:32:45;7.32;;;4.07;;
31770;SDS011;18343;50.152;8.182;2023-11-22T10:35:30;7.15;;;4.45;;
31770;SDS011;18343;50.152;8.182;2023-11-22T10:38:14;5.72;;;3.60;;
31770;SDS011;18343;50.152;8.182;2023-11-22T10:41:01;6.90;;;4.28;;
31770;SDS011;18343;50.152;8.182;2023-11-22T10:43:48;6.65;;;3.97;;
31770;SDS011;18343;50.152;8.182;2023-11-22T10:46:36;7.63;;;4.55;;
31770;SDS011;18343;50.152;8.182;2023-11-22T10:49:23;7.95;;;4.50;;
31770;SDS011;18343;50.152;8.182;2023-11-22T10:52:08;7.75;;;4.22;;
31770;SDS011;18343;50.152;8.182;2023-11-22T10:54:59;10.70;;;4.40;;
31770;SDS011;18343;50.152;8.182;2023-11-22T10:57:49;5.35;;;3.70;;
31770;SDS011;18343;50.152;8.182;2023-11-22T11:00:38;9.35;;;4.18;;
31770;SDS011;18343;50.152;8.182;2023-11-22T11:03:27;7.68;;;4.18;;
31770;SDS011;18343;50.152;8.182;2023-11-22T11:06:14;10.43;;;4.65;;
31770;SDS011;18343;50.152;8.182;2023-11-22T11:09:03;10.35;;;4.53;;
31770;SDS011;18343;50.152;8.182;2023-11-22T11:11:49;10.82;;;5.05;;
31770;SDS011;18343;50.152;8.182;2023-11-22T11:14:35;7.38;;;4.78;;
31770;SDS011;18343;50.152;8.182;2023-11-22T11:17:19;8.60;;;4.32;;
31770;SDS011;18343;50.152;8.182;2023-11-22T11:20:05;7.55;;;5.20;;
31770;SDS011;18343;50.152;8.182;2023-11-22T11:22:50;8.98;;;5.05;;
31770;SDS011;18343;50.152;8.182;2023-11-22T11:25:36;8.00;;;4.35;;
31770;SDS011;18343;50.152;8.182;2023-11-22T11:28:21;8.65;;;4.95;;
31770;SDS011;18343;50.152;8.182;2023-11-22T11:31:07;11.48;;;4.60;;
31770;SDS011;18343;50.152;8.182;2023-11-22T11:33:53;6.88;;;4.03;;
31770;SDS011;18343;50.152;8.182;2023-11-22T11:36:39;6.28;;;4.18;;
31770;SDS011;18343;50.152;8.182;2023-11-22T11:39:27;6.57;;;3.45;;
31770;SDS011;18343;50.152;8.182;2023-11-22T11:42:12;8.18;;;4.65;;
31770;SDS011;18343;50.152;8.182;2023-11-22T11:45:04;7.60;;;4.35;;
31770;SDS011;18343;50.152;8.182;2023-11-22T11:47:52;6.40;;;4.10;;
31770;SDS011;18343;50.152;8.182;2023-11-22T11:50:38;6.07;;;3.58;;
31770;SDS011;18343;50.152;8.182;2023-11-22T11:53:22;9.25;;;4.63;;
31770;SDS011;18343;50.152;8.182;2023-11-22T11:56:07;6.35;;;4.32;;
31770;SDS011;18343;50.152;8.182;2023-11-22T11:58:53;7.80;;;4.00;;
31770;SDS011;18343;50.152;8.182;2023-11-22T12:01:41;8.70;;;4.47;;
31770;SDS011;18343;50.152;8.182;2023-11-22T12:04:27;9.07;;;3.63;;
31770;SDS011;18343;50.152;8.182;2023-11-22T12:07:12;6.18;;;3.30;;
31770;SDS011;18343;50.152;8.182;2023-11-22T12:09:56;9.13;;;3.83;;
31770;SDS011;18343;50.152;8.182;2023-11-22T12:12:43;9.90;;;4.50;;
31770;SDS011;18343;50.152;8.182;2023-11-22T12:15:28;9.82;;;4.80;;
31770;SDS011;18343;50.152;8.182;2023-11-22T12:18:12;9.18;;;3.55;;
31770;SDS011;18343;50.152;8.182;2023-11-22T12:20:59;8.00;;;3.83;;
31770;SDS011;18343;50.152;8.182;2023-11-22T12:23:44;5.60;;;3.83;;
31770;SDS011;18343;50.152;8.182;2023-11-22T12:26:30;6.63;;;3.90;;
31770;SDS011;18343;50.152;8.182;2023-11-22T12:29:16;8.13;;;3.90;;
31770;SDS011;18343;50.152;8.182;2023-11-22T12:32:01;6.32;;;3.80;;
31770;SDS011;18343;50.152;8.182;2023-11-22T12:34:46;6.20;;;3.88;;
31770;SDS011;18343;50.152;8.182;2023-11-22T12:37:33;7.30;;;4.15;;
31770;SDS011;18343;50.152;8.182;2023-11-22T12:40:20;6.93;;;4.28;;
31770;SDS011;18343;50.152;8.182;2023-11-22T12:43:05;7.80;;;4.15;;
31770;SDS011;18343;50.152;8.182;2023-11-22T12:45:57;6.10;;;3.40;;
31770;SDS011;18343;50.152;8.182;2023-11-22T12:48:50;7.88;;;4.30;;
31770;SDS011;18343;50.152;8.182;2023-11-22T12:54:39;6.38;;;3.90;;
31770;SDS011;18343;50.152;8.182;2023-11-22T12:57:28;6.28;;;3.70;;
31770;SDS011;18343;50.152;8.182;2023-11-22T13:00:16;8.93;;;4.75;;
31770;SDS011;18343;50.152;8.182;2023-11-22T13:03:03;8.85;;;3.38;;
31770;SDS011;18343;50.152;8.182;2023-11-22T13:05:49;11.02;;;3.80;;
31770;SDS011;18343;50.152;8.182;2023-11-22T13:08:34;7.70;;;3.92;;
31770;SDS011;18343;50.152;8.182;2023-11-22T13:11:20;7.40;;;4.70;;
31770;SDS011;18343;50.152;8.182;2023-11-22T13:14:05;8.65;;;3.88;;
31770;SDS011;18343;50.152;8.182;2023-11-22T13:16:49;8.30;;;3.97;;
31770;SDS011;18343;50.152;8.182;2023-11-22T13:19:35;8.63;;;3.88;;
31770;SDS011;18343;50.152;8.182;2023-11-22T13:22:20;8.13;;;3.78;;
31770;SDS011;18343;50.152;8.182;2023-11-22T13:25:05;13.02;;;4.82;;
31770;SDS011;18343;50.152;8.182;2023-11-22T13:27:54;6.07;;;4.13;;
31770;SDS011;18343;50.152;8.182;2023-11-22T13:30:42;6.63;;;3.92;;
31770;SDS011;18343;50.152;8.182;2023-11-22T13:33:26;11.60;;;4.18;;
31770;SDS011;18343;50.152;8.182;2023-11-22T13:36:12;7.80;;;3.95;;
31770;SDS011;18343;50.152;8.182;2023-11-22T13:39:00;5.13;;;3.50;;
31770;SDS011;18343;50.152;8.182;2023-11-22T13:41:44;7.57;;;4.15;;
31770;SDS011;18343;50.152;8.182;2023-11-22T13:44:31;7.80;;;4.43;;
31770;SDS011;18343;50.152;8.182;2023-11-22T13:47:17;8.18;;;4.35;;
31770;SDS011;18343;50.152;8.182;2023-11-22T13:50:03;6.70;;;4.20;;
31770;SDS011;18343;50.152;8.182;2023-11-22T13:52:49;5.35;;;3.33;;
31770;SDS011;18343;50.152;8.182;2023-11-22T13:55:37;7.93;;;3.90;;
31770;SDS011;18343;50.152;8.182;2023-11-22T13:58:22;9.48;;;3.90;;
31770;SDS011;18343;50.152;8.182;2023-11-22T14:01:09;5.72;;;3.72;;
31770;SDS011;18343;50.152;8.182;2023-11-22T14:03:54;11.38;;;3.92;;
31770;SDS011;18343;50.152;8.182;2023-11-22T14:06:40;7.20;;;4.63;;
31770;SDS011;18343;50.152;8.182;2023-11-22T14:09:25;9.27;;;4.40;;
31770;SDS011;18343;50.152;8.182;2023-11-22T14:12:11;7.80;;;3.78;;
31770;SDS011;18343;50.152;8.182;2023-11-22T14:14:57;7.03;;;3.30;;
31770;SDS011;18343;50.152;8.182;2023-11-22T14:17:44;8.18;;;3.72;;
31770;SDS011;18343;50.152;8.182;2023-11-22T14:20:28;7.28;;;3.78;;
31770;SDS011;18343;50.152;8.182;2023-11-22T14:23:14;5.40;;;3.50;;
31770;SDS011;18343;50.152;8.182;2023-11-22T14:25:59;5.75;;;3.53;;
31770;SDS011;18343;50.152;8.182;2023-11-22T14:28:44;8.07;;;3.78;;
31770;SDS011;18343;50.152;8.182;2023-11-22T14:31:30;5.47;;;3.33;;
31770;SDS011;18343;50.152;8.182;2023-11-22T14:34:23;8.52;;;3.95;;
31770;SDS011;18343;50.152;8.182;2023-11-22T14:37:11;9.38;;;4.15;;
31770;SDS011;18343;50.152;8.182;2023-11-22T14:40:01;7.93;;;3.88;;
31770;SDS011;18343;50.152;8.182;2023-11-22T14:42:48;8.48;;;4.57;;
31770;SDS011;18343;50.152;8.182;2023-11-22T14:45:33;7.10;;;4.13;;
31770;SDS011;18343;50.152;8.182;2023-11-22T14:48:18;6.72;;;3.63;;
31770;SDS011;18343;50.152;8.182;2023-11-22T14:51:05;8.00;;;4.30;;
31770;SDS011;18343;50.152;8.182;2023-11-22T14:53:55;7.20;;;4.43;;
31770;SDS011;18343;50.152;8.182;2023-11-22T14:56:42;6.53;;;3.65;;
31770;SDS011;18343;50.152;8.182;2023-11-22T14:59:28;5.10;;;3.30;;
31770;SDS011;18343;50.152;8.182;2023-11-22T15:02:14;7.70;;;4.43;;
31770;SDS011;18343;50.152;8.182;2023-11-22T15:04:59;6.95;;;4.00;;
31770;SDS011;18343;50.152;8.182;2023-11-22T15:07:45;9.98;;;5.13;;
31770;SDS011;18343;50.152;8.182;2023-11-22T15:10:31;11.40;;;5.30;;
31770;SDS011;18343;50.152;8.182;2023-11-22T15:13:16;8.32;;;5.00;;
31770;SDS011;18343;50.152;8.182;2023-11-22T15:16:01;11.15;;;4.50;;
31770;SDS011;18343;50.152;8.182;2023-11-22T15:21:49;9.13;;;4.82;;
31770;SDS011;18343;50.152;8.182;2023-11-22T15:24:36;9.52;;;5.00;;
31770;SDS011;18343;50.152;8.182;2023-11-22T15:27:22;11.85;;;5.55;;
31770;SDS011;18343;50.152;8.182;2023-11-22T15:30:08;14.07;;;4.55;;
31770;SDS011;18343;50.152;8.182;2023-11-22T15:32:56;10.50;;;5.47;;
31770;SDS011;18343;50.152;8.182;2023-11-22T15:35:41;8.70;;;5.35;;
31770;SDS011;18343;50.152;8.182;2023-11-22T15:38:28;13.32;;;5.85;;
31770;SDS011;18343;50.152;8.182;2023-11-22T15:41:15;12.27;;;4.75;;
31770;SDS011;18343;50.152;8.182;2023-11-22T15:44:00;14.80;;;5.28;;
31770;SDS011;18343;50.152;8.182;2023-11-22T15:46:46;13.35;;;5.15;;
31770;SDS011;18343;50.152;8.182;2023-11-22T15:49:32;9.50;;;6.15;;
31770;SDS011;18343;50.152;8.182;2023-11-22T15:52:17;9.40;;;5.90;;
31770;SDS011;18343;50.152;8.182;2023-11-22T15:55:02;12.52;;;6.03;;
31770;SDS011;18343;50.152;8.182;2023-11-22T15:57:51;12.50;;;5.70;;
31770;SDS011;18343;50.152;8.182;2023-11-22T16:00:36;10.27;;;5.30;;
31770;SDS011;18343;50.152;8.182;2023-11-22T16:03:21;14.75;;;4.30;;
31770;SDS011;18343;50.152;8.182;2023-11-22T16:06:06;13.52;;;4.60;;
31770;SDS011;18343;50.152;8.182;2023-11-22T16:08:51;7.50;;;4.55;;
31770;SDS011;18343;50.152;8.182;2023-11-22T16:11:36;19.08;;;8.18;;
31770;SDS011;18343;50.152;8.182;2023-11-22T16:14:23;10.60;;;6.20;;
31770;SDS011;18343;50.152;8.182;2023-11-22T16:17:07;18.92;;;7.68;;
31770;SDS011;18343;50.152;8.182;2023-11-22T16:19:52;13.35;;;6.25;;
31770;SDS011;18343;50.152;8.182;2023-11-22T16:22:38;10.32;;;5.90;;
31770;SDS011;18343;50.152;8.182;2023-11-22T16:25:24;14.32;;;8.98;;
31770;SDS011;18343;50.152;8.182;2023-11-22T16:28:09;21.13;;;13.25;;
31770;SDS011;18343;50.152;8.182;2023-11-22T16:30:58;16.67;;;9.63;;
31770;SDS011;18343;50.152;8.182;2023-11-22T16:33:43;17.83;;;9.40;;
31770;SDS011;18343;50.152;8.182;2023-11-22T16:36:28;12.80;;;8.98;;
31770;SDS011;18343;50.152;8.182;2023-11-22T16:39:13;14.50;;;8.48;;